sensor_id;sensor_type;location;lat;lon;timestamp;temperature;humidity
22288;DHT22;11312;51.464;6.968;2023-05-07T00:01:56;16.60;99.90
22288;DHT22;11312;51.464;6.968;2023-05-07T00:04:22;16.50;99.90
22288;DHT22;11312;51.464;6.968;2023-05-07T00:06:48;16.60;99.90
22288;DHT22;11312;51.464;6.968;2023-05-07T00:09:13;16.50;99.90
22288;DHT22;11312;51.464;6.968;2023-05-07T00:11:39;16.60;99.90
22288;DHT22;11312;51.464;6.968;2023-05-07T00:14:05;16.60;99.90
22288;DHT22;11312;51.464;6.968;2023-05-07T00:16:31;16.60;99.90
22288;DHT22;11312;51.464;6.968;2023-05-07T00:18:56;16.50;99.90
22288;DHT22;11312;51.464;6.968;2023-05-07T00:21:22;16.50;99.90
22288;DHT22;11312;51.464;6.968;2023-05-07T00:23:48;16.50;99.90
22288;DHT22;11312;51.464;6.968;2023-05-07T00:26:13;16.60;99.90
22288;DHT22;11312;51.464;6.968;2023-05-07T00:28:39;16.50;99.90
22288;DHT22;11312;51.464;6.968;2023-05-07T00:31:04;16.50;99.90
22288;DHT22;11312;51.464;6.968;2023-05-07T00:33:30;16.50;99.90
22288;DHT22;11312;51.464;6.968;2023-05-07T00:35:56;16.40;99.90
22288;DHT22;11312;51.464;6.968;2023-05-07T00:38:21;16.40;99.90
22288;DHT22;11312;51.464;6.968;2023-05-07T00:40:47;16.30;99.90
22288;DHT22;11312;51.464;6.968;2023-05-07T00:43:12;16.30;99.90
22288;DHT22;11312;51.464;6.968;2023-05-07T00:45:38;16.30;99.90
22288;DHT22;11312;51.464;6.968;2023-05-07T00:48:04;16.20;99.90
22288;DHT22;11312;51.464;6.968;2023-05-07T00:50:31;16.20;99.90
22288;DHT22;11312;51.464;6.968;2023-05-07T00:52:58;16.20;99.90
22288;DHT22;11312;51.464;6.968;2023-05-07T00:55:24;15.80;99.90
22288;DHT22;11312;51.464;6.968;2023-05-07T00:57:51;15.60;99.90
22288;DHT22;11312;51.464;6.968;2023-05-07T01:00:17;15.50;99.90
22288;DHT22;11312;51.464;6.968;2023-05-07T01:02:43;15.60;99.90
22288;DHT22;11312;51.464;6.968;2023-05-07T01:05:12;15.70;99.90
22288;DHT22;11312;51.464;6.968;2023-05-07T01:07:40;15.70;99.90
22288;DHT22;11312;51.464;6.968;2023-05-07T01:10:07;15.80;99.90
22288;DHT22;11312;51.464;6.968;2023-05-07T01:12:36;15.90;99.90
22288;DHT22;11312;51.464;6.968;2023-05-07T01:15:02;15.90;99.90
22288;DHT22;11312;51.464;6.968;2023-05-07T01:17:28;15.90;99.90
22288;DHT22;11312;51.464;6.968;2023-05-07T01:19:54;16.00;99.90
22288;DHT22;11312;51.464;6.968;2023-05-07T01:22:30;16.00;99.90
22288;DHT22;11312;51.464;6.968;2023-05-07T01:24:57;15.90;99.90
22288;DHT22;11312;51.464;6.968;2023-05-07T01:27:25;15.90;99.90
22288;DHT22;11312;51.464;6.968;2023-05-07T01:29:50;15.90;99.90
22288;DHT22;11312;51.464;6.968;2023-05-07T01:32:19;16.00;99.90
22288;DHT22;11312;51.464;6.968;2023-05-07T01:34:48;15.90;99.90
22288;DHT22;11312;51.464;6.968;2023-05-07T01:37:14;15.90;99.90
22288;DHT22;11312;51.464;6.968;2023-05-07T01:39:42;15.90;99.90
22288;DHT22;11312;51.464;6.968;2023-05-07T01:42:07;15.90;99.90
22288;DHT22;11312;51.464;6.968;2023-05-07T01:44:33;16.10;99.90
22288;DHT22;11312;51.464;6.968;2023-05-07T01:46:59;15.90;99.90
22288;DHT22;11312;51.464;6.968;2023-05-07T01:49:26;15.90;99.90
22288;DHT22;11312;51.464;6.968;2023-05-07T01:51:52;16.00;99.90
22288;DHT22;11312;51.464;6.968;2023-05-07T01:54:17;16.00;99.90
22288;DHT22;11312;51.464;6.968;2023-05-07T01:56:43;15.90;99.90
22288;DHT22;11312;51.464;6.968;2023-05-07T01:59:09;16.00;99.90
22288;DHT22;11312;51.464;6.968;2023-05-07T02:01:34;15.90;99.90
22288;DHT22;11312;51.464;6.968;2023-05-07T02:04:00;15.90;99.90
22288;DHT22;11312;51.464;6.968;2023-05-07T02:06:26;15.80;99.90
22288;DHT22;11312;51.464;6.968;2023-05-07T02:08:51;15.80;99.90
22288;DHT22;11312;51.464;6.968;2023-05-07T02:11:17;15.80;99.90
22288;DHT22;11312;51.464;6.968;2023-05-07T02:13:42;15.80;99.90
22288;DHT22;11312;51.464;6.968;2023-05-07T02:16:08;15.80;99.90
22288;DHT22;11312;51.464;6.968;2023-05-07T02:18:34;15.80;99.90
22288;DHT22;11312;51.464;6.968;2023-05-07T02:21:00;15.90;99.90
22288;DHT22;11312;51.464;6.968;2023-05-07T02:23:26;15.70;99.90
22288;DHT22;11312;51.464;6.968;2023-05-07T02:25:52;15.80;99.90
22288;DHT22;11312;51.464;6.968;2023-05-07T02:28:17;15.80;99.90
22288;DHT22;11312;51.464;6.968;2023-05-07T02:30:43;15.80;99.90
22288;DHT22;11312;51.464;6.968;2023-05-07T02:33:08;15.70;99.90
22288;DHT22;11312;51.464;6.968;2023-05-07T02:35:34;15.60;99.90
22288;DHT22;11312;51.464;6.968;2023-05-07T02:38:00;15.70;99.90
22288;DHT22;11312;51.464;6.968;2023-05-07T02:40:26;15.60;99.90
22288;DHT22;11312;51.464;6.968;2023-05-07T02:42:51;15.70;99.90
22288;DHT22;11312;51.464;6.968;2023-05-07T02:45:17;15.70;99.90
22288;DHT22;11312;51.464;6.968;2023-05-07T02:47:43;15.60;99.90
22288;DHT22;11312;51.464;6.968;2023-05-07T02:50:08;15.70;99.90
22288;DHT22;11312;51.464;6.968;2023-05-07T02:52:34;15.70;99.90
22288;DHT22;11312;51.464;6.968;2023-05-07T02:54:59;15.70;99.90
22288;DHT22;11312;51.464;6.968;2023-05-07T02:57:25;15.70;99.90
22288;DHT22;11312;51.464;6.968;2023-05-07T02:59:51;15.70;99.90
22288;DHT22;11312;51.464;6.968;2023-05-07T03:02:16;15.60;99.90
22288;DHT22;11312;51.464;6.968;2023-05-07T03:04:42;15.60;99.90
22288;DHT22;11312;51.464;6.968;2023-05-07T03:07:08;15.70;99.90
22288;DHT22;11312;51.464;6.968;2023-05-07T03:09:33;15.60;99.90
22288;DHT22;11312;51.464;6.968;2023-05-07T03:11:59;15.60;99.90
22288;DHT22;11312;51.464;6.968;2023-05-07T03:14:24;15.60;99.90
22288;DHT22;11312;51.464;6.968;2023-05-07T03:16:50;15.60;99.90
22288;DHT22;11312;51.464;6.968;2023-05-07T03:19:16;15.60;99.90
22288;DHT22;11312;51.464;6.968;2023-05-07T03:21:41;15.60;99.90
22288;DHT22;11312;51.464;6.968;2023-05-07T03:24:07;15.50;99.90
22288;DHT22;11312;51.464;6.968;2023-05-07T03:26:33;15.50;99.90
22288;DHT22;11312;51.464;6.968;2023-05-07T03:28:59;15.50;99.90
22288;DHT22;11312;51.464;6.968;2023-05-07T03:31:25;15.50;99.90
22288;DHT22;11312;51.464;6.968;2023-05-07T03:33:52;15.50;99.90
22288;DHT22;11312;51.464;6.968;2023-05-07T03:36:18;15.50;99.90
22288;DHT22;11312;51.464;6.968;2023-05-07T03:38:43;15.50;99.90
22288;DHT22;11312;51.464;6.968;2023-05-07T03:41:09;15.50;99.90
22288;DHT22;11312;51.464;6.968;2023-05-07T03:43:35;15.50;99.90
22288;DHT22;11312;51.464;6.968;2023-05-07T03:46:00;15.50;99.90
22288;DHT22;11312;51.464;6.968;2023-05-07T03:48:26;15.50;99.90
22288;DHT22;11312;51.464;6.968;2023-05-07T03:50:51;15.40;99.90
22288;DHT22;11312;51.464;6.968;2023-05-07T03:53:17;15.40;99.90
22288;DHT22;11312;51.464;6.968;2023-05-07T03:55:43;15.50;99.90
22288;DHT22;11312;51.464;6.968;2023-05-07T03:58:08;15.40;99.90
22288;DHT22;11312;51.464;6.968;2023-05-07T04:00:34;15.40;99.90
22288;DHT22;11312;51.464;6.968;2023-05-07T04:03:03;15.40;99.90
22288;DHT22;11312;51.464;6.968;2023-05-07T04:05:30;15.50;99.90
22288;DHT22;11312;51.464;6.968;2023-05-07T04:07:57;15.40;99.90
22288;DHT22;11312;51.464;6.968;2023-05-07T04:10:22;15.30;99.90
22288;DHT22;11312;51.464;6.968;2023-05-07T04:12:48;15.40;99.90
22288;DHT22;11312;51.464;6.968;2023-05-07T04:15:14;15.30;99.90
22288;DHT22;11312;51.464;6.968;2023-05-07T04:17:40;15.30;99.90
22288;DHT22;11312;51.464;6.968;2023-05-07T04:20:10;15.30;99.90
22288;DHT22;11312;51.464;6.968;2023-05-07T04:22:36;15.40;99.90
22288;DHT22;11312;51.464;6.968;2023-05-07T04:25:02;15.40;99.90
22288;DHT22;11312;51.464;6.968;2023-05-07T04:27:28;15.30;99.90
22288;DHT22;11312;51.464;6.968;2023-05-07T04:29:54;15.20;99.90
22288;DHT22;11312;51.464;6.968;2023-05-07T04:32:22;15.30;99.90
22288;DHT22;11312;51.464;6.968;2023-05-07T04:34:47;15.40;99.90
22288;DHT22;11312;51.464;6.968;2023-05-07T04:37:13;15.40;99.90
22288;DHT22;11312;51.464;6.968;2023-05-07T04:39:39;15.20;99.90
22288;DHT22;11312;51.464;6.968;2023-05-07T04:42:04;15.20;99.90
22288;DHT22;11312;51.464;6.968;2023-05-07T04:44:32;14.50;99.90
22288;DHT22;11312;51.464;6.968;2023-05-07T04:46:58;15.10;99.90
22288;DHT22;11312;51.464;6.968;2023-05-07T04:49:24;14.70;99.90
22288;DHT22;11312;51.464;6.968;2023-05-07T04:51:50;14.80;99.90
22288;DHT22;11312;51.464;6.968;2023-05-07T04:54:15;14.70;99.90
22288;DHT22;11312;51.464;6.968;2023-05-07T04:56:41;14.90;99.90
22288;DHT22;11312;51.464;6.968;2023-05-07T04:59:07;15.10;99.90
22288;DHT22;11312;51.464;6.968;2023-05-07T05:01:32;15.20;99.90
22288;DHT22;11312;51.464;6.968;2023-05-07T05:03:58;15.30;99.90
22288;DHT22;11312;51.464;6.968;2023-05-07T05:06:25;15.30;99.90
22288;DHT22;11312;51.464;6.968;2023-05-07T05:08:51;15.20;99.90
22288;DHT22;11312;51.464;6.968;2023-05-07T05:11:17;15.20;99.90
22288;DHT22;11312;51.464;6.968;2023-05-07T05:13:42;15.30;99.90
22288;DHT22;11312;51.464;6.968;2023-05-07T05:16:08;15.30;99.90
22288;DHT22;11312;51.464;6.968;2023-05-07T05:18:34;15.30;99.90
22288;DHT22;11312;51.464;6.968;2023-05-07T05:21:00;15.30;99.90
22288;DHT22;11312;51.464;6.968;2023-05-07T05:23:27;15.20;99.90
22288;DHT22;11312;51.464;6.968;2023-05-07T05:25:56;15.30;99.90
22288;DHT22;11312;51.464;6.968;2023-05-07T05:28:23;15.40;99.90
22288;DHT22;11312;51.464;6.968;2023-05-07T05:30:49;15.40;99.90
22288;DHT22;11312;51.464;6.968;2023-05-07T05:33:15;15.60;99.90
22288;DHT22;11312;51.464;6.968;2023-05-07T05:35:41;15.60;99.90
22288;DHT22;11312;51.464;6.968;2023-05-07T05:38:06;15.70;99.90
22288;DHT22;11312;51.464;6.968;2023-05-07T05:40:32;15.90;99.90
22288;DHT22;11312;51.464;6.968;2023-05-07T05:42:58;16.10;99.90
22288;DHT22;11312;51.464;6.968;2023-05-07T05:45:24;16.20;99.90
22288;DHT22;11312;51.464;6.968;2023-05-07T05:47:50;16.20;99.90
22288;DHT22;11312;51.464;6.968;2023-05-07T05:50:16;16.10;99.90
22288;DHT22;11312;51.464;6.968;2023-05-07T05:52:41;16.10;99.90
22288;DHT22;11312;51.464;6.968;2023-05-07T05:55:08;16.00;99.90
22288;DHT22;11312;51.464;6.968;2023-05-07T05:57:34;16.00;99.90
22288;DHT22;11312;51.464;6.968;2023-05-07T06:00:00;16.00;99.90
22288;DHT22;11312;51.464;6.968;2023-05-07T06:02:26;16.00;99.90
22288;DHT22;11312;51.464;6.968;2023-05-07T06:04:52;16.10;99.90
22288;DHT22;11312;51.464;6.968;2023-05-07T06:07:18;16.20;99.90
22288;DHT22;11312;51.464;6.968;2023-05-07T06:09:43;16.10;99.90
22288;DHT22;11312;51.464;6.968;2023-05-07T06:12:09;16.20;99.90
22288;DHT22;11312;51.464;6.968;2023-05-07T06:14:35;16.40;99.90
22288;DHT22;11312;51.464;6.968;2023-05-07T06:17:00;16.40;99.90
22288;DHT22;11312;51.464;6.968;2023-05-07T06:19:26;16.30;99.90
22288;DHT22;11312;51.464;6.968;2023-05-07T06:21:53;16.50;99.90
22288;DHT22;11312;51.464;6.968;2023-05-07T06:24:19;16.50;99.90
22288;DHT22;11312;51.464;6.968;2023-05-07T06:26:45;16.60;99.90
22288;DHT22;11312;51.464;6.968;2023-05-07T06:29:10;16.80;99.90
22288;DHT22;11312;51.464;6.968;2023-05-07T06:31:36;16.80;99.90
22288;DHT22;11312;51.464;6.968;2023-05-07T06:34:02;16.80;99.90
22288;DHT22;11312;51.464;6.968;2023-05-07T06:36:28;16.90;99.90
22288;DHT22;11312;51.464;6.968;2023-05-07T06:38:53;17.00;99.90
22288;DHT22;11312;51.464;6.968;2023-05-07T06:41:20;16.90;99.90
22288;DHT22;11312;51.464;6.968;2023-05-07T06:43:45;16.90;99.90
22288;DHT22;11312;51.464;6.968;2023-05-07T06:46:11;16.80;99.90
22288;DHT22;11312;51.464;6.968;2023-05-07T06:48:37;16.80;99.90
22288;DHT22;11312;51.464;6.968;2023-05-07T06:51:02;16.90;99.90
22288;DHT22;11312;51.464;6.968;2023-05-07T06:53:28;17.00;99.90
22288;DHT22;11312;51.464;6.968;2023-05-07T06:55:56;17.00;99.90
22288;DHT22;11312;51.464;6.968;2023-05-07T06:58:22;17.10;99.90
22288;DHT22;11312;51.464;6.968;2023-05-07T07:00:48;17.10;99.90
22288;DHT22;11312;51.464;6.968;2023-05-07T07:03:13;17.20;99.90
22288;DHT22;11312;51.464;6.968;2023-05-07T07:05:41;17.30;99.90
22288;DHT22;11312;51.464;6.968;2023-05-07T07:08:07;17.30;99.90
22288;DHT22;11312;51.464;6.968;2023-05-07T07:10:32;17.30;99.90
22288;DHT22;11312;51.464;6.968;2023-05-07T07:12:58;17.40;99.90
22288;DHT22;11312;51.464;6.968;2023-05-07T07:15:24;17.40;99.90
22288;DHT22;11312;51.464;6.968;2023-05-07T07:17:50;17.60;99.90
22288;DHT22;11312;51.464;6.968;2023-05-07T07:20:16;17.70;99.90
22288;DHT22;11312;51.464;6.968;2023-05-07T07:22:42;17.70;99.90
22288;DHT22;11312;51.464;6.968;2023-05-07T07:25:08;17.70;99.90
22288;DHT22;11312;51.464;6.968;2023-05-07T07:27:33;17.60;99.90
22288;DHT22;11312;51.464;6.968;2023-05-07T07:29:59;17.60;99.90
22288;DHT22;11312;51.464;6.968;2023-05-07T07:32:25;17.60;99.90
22288;DHT22;11312;51.464;6.968;2023-05-07T07:34:51;17.60;99.90
22288;DHT22;11312;51.464;6.968;2023-05-07T07:37:16;17.60;99.90
22288;DHT22;11312;51.464;6.968;2023-05-07T07:39:42;17.60;99.90
22288;DHT22;11312;51.464;6.968;2023-05-07T07:42:07;17.70;99.90
22288;DHT22;11312;51.464;6.968;2023-05-07T07:44:33;17.80;99.90
22288;DHT22;11312;51.464;6.968;2023-05-07T07:46:59;18.00;99.90
22288;DHT22;11312;51.464;6.968;2023-05-07T07:49:24;18.40;99.90
22288;DHT22;11312;51.464;6.968;2023-05-07T07:51:50;18.30;99.90
22288;DHT22;11312;51.464;6.968;2023-05-07T07:54:16;18.60;99.90
22288;DHT22;11312;51.464;6.968;2023-05-07T07:56:42;18.50;99.90
22288;DHT22;11312;51.464;6.968;2023-05-07T07:59:07;18.40;99.90
22288;DHT22;11312;51.464;6.968;2023-05-07T08:01:33;18.20;99.90
22288;DHT22;11312;51.464;6.968;2023-05-07T08:03:59;18.30;99.90
22288;DHT22;11312;51.464;6.968;2023-05-07T08:06:25;18.20;99.90
22288;DHT22;11312;51.464;6.968;2023-05-07T08:08:53;18.30;99.90
22288;DHT22;11312;51.464;6.968;2023-05-07T08:11:19;18.70;99.90
22288;DHT22;11312;51.464;6.968;2023-05-07T08:13:45;18.60;99.90
22288;DHT22;11312;51.464;6.968;2023-05-07T08:16:11;18.40;99.90
22288;DHT22;11312;51.464;6.968;2023-05-07T08:18:37;18.50;99.90
22288;DHT22;11312;51.464;6.968;2023-05-07T08:21:03;18.60;99.90
22288;DHT22;11312;51.464;6.968;2023-05-07T08:23:28;19.00;99.90
22288;DHT22;11312;51.464;6.968;2023-05-07T08:25:54;18.70;99.90
22288;DHT22;11312;51.464;6.968;2023-05-07T08:28:20;19.10;99.90
22288;DHT22;11312;51.464;6.968;2023-05-07T08:30:46;19.30;99.90
22288;DHT22;11312;51.464;6.968;2023-05-07T08:33:12;19.50;99.90
22288;DHT22;11312;51.464;6.968;2023-05-07T08:35:38;19.70;99.90
22288;DHT22;11312;51.464;6.968;2023-05-07T08:38:04;19.70;99.90
22288;DHT22;11312;51.464;6.968;2023-05-07T08:40:34;19.60;99.90
22288;DHT22;11312;51.464;6.968;2023-05-07T08:43:02;19.90;99.90
22288;DHT22;11312;51.464;6.968;2023-05-07T08:45:30;19.90;99.90
22288;DHT22;11312;51.464;6.968;2023-05-07T08:48:02;19.80;99.90
22288;DHT22;11312;51.464;6.968;2023-05-07T08:50:30;19.80;99.90
22288;DHT22;11312;51.464;6.968;2023-05-07T08:52:56;19.60;99.90
22288;DHT22;11312;51.464;6.968;2023-05-07T08:55:23;19.80;99.90
22288;DHT22;11312;51.464;6.968;2023-05-07T08:57:49;20.10;99.90
22288;DHT22;11312;51.464;6.968;2023-05-07T09:00:15;20.20;99.90
22288;DHT22;11312;51.464;6.968;2023-05-07T09:02:41;20.60;99.90
22288;DHT22;11312;51.464;6.968;2023-05-07T09:05:07;21.10;99.90
22288;DHT22;11312;51.464;6.968;2023-05-07T09:07:34;22.00;99.90
22288;DHT22;11312;51.464;6.968;2023-05-07T09:10:04;22.20;99.90
22288;DHT22;11312;51.464;6.968;2023-05-07T09:12:31;22.60;99.90
22288;DHT22;11312;51.464;6.968;2023-05-07T09:14:56;22.10;99.90
22288;DHT22;11312;51.464;6.968;2023-05-07T09:17:22;22.90;99.90
22288;DHT22;11312;51.464;6.968;2023-05-07T09:19:48;22.70;99.90
22288;DHT22;11312;51.464;6.968;2023-05-07T09:22:13;23.30;99.90
22288;DHT22;11312;51.464;6.968;2023-05-07T09:24:39;23.90;99.90
22288;DHT22;11312;51.464;6.968;2023-05-07T09:27:06;23.90;99.90
22288;DHT22;11312;51.464;6.968;2023-05-07T09:29:32;23.80;99.90
22288;DHT22;11312;51.464;6.968;2023-05-07T09:32:07;23.60;99.90
22288;DHT22;11312;51.464;6.968;2023-05-07T09:34:34;23.30;99.90
22288;DHT22;11312;51.464;6.968;2023-05-07T09:37:05;23.00;99.90
22288;DHT22;11312;51.464;6.968;2023-05-07T09:39:44;23.20;99.90
22288;DHT22;11312;51.464;6.968;2023-05-07T09:42:10;23.60;99.90
22288;DHT22;11312;51.464;6.968;2023-05-07T09:44:37;23.80;99.90
22288;DHT22;11312;51.464;6.968;2023-05-07T09:47:07;23.60;99.90
22288;DHT22;11312;51.464;6.968;2023-05-07T09:49:37;23.80;99.90
22288;DHT22;11312;51.464;6.968;2023-05-07T09:52:06;23.40;99.90
22288;DHT22;11312;51.464;6.968;2023-05-07T09:54:35;23.10;99.90
22288;DHT22;11312;51.464;6.968;2023-05-07T09:57:04;22.40;99.90
22288;DHT22;11312;51.464;6.968;2023-05-07T09:59:32;22.00;99.90
22288;DHT22;11312;51.464;6.968;2023-05-07T10:01:58;22.10;99.90
22288;DHT22;11312;51.464;6.968;2023-05-07T10:04:25;22.10;99.90
22288;DHT22;11312;51.464;6.968;2023-05-07T10:06:52;22.10;99.90
22288;DHT22;11312;51.464;6.968;2023-05-07T10:09:19;22.40;99.90
22288;DHT22;11312;51.464;6.968;2023-05-07T10:11:46;23.10;99.90
22288;DHT22;11312;51.464;6.968;2023-05-07T10:14:14;23.30;99.90
22288;DHT22;11312;51.464;6.968;2023-05-07T10:16:41;23.70;99.90
22288;DHT22;11312;51.464;6.968;2023-05-07T10:19:08;23.60;99.90
22288;DHT22;11312;51.464;6.968;2023-05-07T10:21:39;23.60;99.90
22288;DHT22;11312;51.464;6.968;2023-05-07T10:24:17;23.70;99.90
22288;DHT22;11312;51.464;6.968;2023-05-07T10:26:48;23.80;99.90
22288;DHT22;11312;51.464;6.968;2023-05-07T10:29:21;23.90;99.90
22288;DHT22;11312;51.464;6.968;2023-05-07T10:35:06;23.80;99.90
22288;DHT22;11312;51.464;6.968;2023-05-07T10:37:34;24.00;99.90
22288;DHT22;11312;51.464;6.968;2023-05-07T10:40:01;23.70;99.90
22288;DHT22;11312;51.464;6.968;2023-05-07T10:42:26;23.80;99.90
22288;DHT22;11312;51.464;6.968;2023-05-07T10:44:52;24.00;99.90
22288;DHT22;11312;51.464;6.968;2023-05-07T10:47:17;24.10;99.90
22288;DHT22;11312;51.464;6.968;2023-05-07T10:52:23;23.90;99.90
22288;DHT22;11312;51.464;6.968;2023-05-07T10:57:45;23.90;99.90
22288;DHT22;11312;51.464;6.968;2023-05-07T11:03:05;24.10;99.90
22288;DHT22;11312;51.464;6.968;2023-05-07T11:05:33;24.50;99.90
22288;DHT22;11312;51.464;6.968;2023-05-07T11:08:02;24.90;99.90
22288;DHT22;11312;51.464;6.968;2023-05-07T11:13:16;25.50;99.90
22288;DHT22;11312;51.464;6.968;2023-05-07T11:15:42;25.60;99.90
22288;DHT22;11312;51.464;6.968;2023-05-07T11:18:09;25.40;99.90
22288;DHT22;11312;51.464;6.968;2023-05-07T11:23:12;25.00;99.90
22288;DHT22;11312;51.464;6.968;2023-05-07T11:25:58;24.60;99.90
22288;DHT22;11312;51.464;6.968;2023-05-07T11:28:24;24.00;99.90
22288;DHT22;11312;51.464;6.968;2023-05-07T11:30:50;23.80;99.90
22288;DHT22;11312;51.464;6.968;2023-05-07T11:33:17;24.20;99.90
22288;DHT22;11312;51.464;6.968;2023-05-07T11:35:42;24.50;99.90
22288;DHT22;11312;51.464;6.968;2023-05-07T11:38:08;25.10;99.90
22288;DHT22;11312;51.464;6.968;2023-05-07T11:40:33;25.10;99.90
22288;DHT22;11312;51.464;6.968;2023-05-07T11:42:59;24.60;99.90
22288;DHT22;11312;51.464;6.968;2023-05-07T11:45:35;24.60;99.90
22288;DHT22;11312;51.464;6.968;2023-05-07T11:48:01;25.10;99.90
22288;DHT22;11312;51.464;6.968;2023-05-07T11:50:27;25.90;99.90
22288;DHT22;11312;51.464;6.968;2023-05-07T11:52:52;25.90;99.90
22288;DHT22;11312;51.464;6.968;2023-05-07T11:55:18;25.10;99.90
22288;DHT22;11312;51.464;6.968;2023-05-07T11:57:44;24.30;99.90
22288;DHT22;11312;51.464;6.968;2023-05-07T12:00:10;23.80;99.90
22288;DHT22;11312;51.464;6.968;2023-05-07T12:02:36;23.50;99.90
22288;DHT22;11312;51.464;6.968;2023-05-07T12:05:01;23.50;99.90
22288;DHT22;11312;51.464;6.968;2023-05-07T12:07:27;23.40;99.90
22288;DHT22;11312;51.464;6.968;2023-05-07T12:09:53;23.10;99.90
22288;DHT22;11312;51.464;6.968;2023-05-07T12:12:18;23.00;99.90
22288;DHT22;11312;51.464;6.968;2023-05-07T12:14:45;23.10;99.90
22288;DHT22;11312;51.464;6.968;2023-05-07T12:17:11;23.20;99.90
22288;DHT22;11312;51.464;6.968;2023-05-07T12:19:37;23.20;99.90
22288;DHT22;11312;51.464;6.968;2023-05-07T12:22:03;23.00;99.90
22288;DHT22;11312;51.464;6.968;2023-05-07T12:24:30;22.80;99.90
22288;DHT22;11312;51.464;6.968;2023-05-07T12:27:06;22.70;99.90
22288;DHT22;11312;51.464;6.968;2023-05-07T12:29:32;22.30;99.90
22288;DHT22;11312;51.464;6.968;2023-05-07T12:31:58;22.20;99.90
22288;DHT22;11312;51.464;6.968;2023-05-07T12:34:24;21.90;99.90
22288;DHT22;11312;51.464;6.968;2023-05-07T12:36:49;22.00;99.90
22288;DHT22;11312;51.464;6.968;2023-05-07T12:39:15;21.90;99.90
22288;DHT22;11312;51.464;6.968;2023-05-07T12:41:57;21.90;99.90
22288;DHT22;11312;51.464;6.968;2023-05-07T12:44:30;21.70;99.90
22288;DHT22;11312;51.464;6.968;2023-05-07T12:46:56;21.80;99.90
22288;DHT22;11312;51.464;6.968;2023-05-07T12:49:23;21.80;99.90
22288;DHT22;11312;51.464;6.968;2023-05-07T12:51:49;21.80;99.90
22288;DHT22;11312;51.464;6.968;2023-05-07T12:54:37;22.00;99.90
22288;DHT22;11312;51.464;6.968;2023-05-07T12:57:04;22.00;99.90
22288;DHT22;11312;51.464;6.968;2023-05-07T12:59:38;21.90;1.00
22288;DHT22;11312;51.464;6.968;2023-05-07T13:02:04;21.60;99.90
22288;DHT22;11312;51.464;6.968;2023-05-07T13:04:30;21.80;99.90
22288;DHT22;11312;51.464;6.968;2023-05-07T13:06:56;21.60;99.90
22288;DHT22;11312;51.464;6.968;2023-05-07T13:09:22;21.60;99.90
22288;DHT22;11312;51.464;6.968;2023-05-07T13:11:47;21.40;99.90
22288;DHT22;11312;51.464;6.968;2023-05-07T13:14:13;21.40;99.90
22288;DHT22;11312;51.464;6.968;2023-05-07T13:16:39;21.50;99.90
22288;DHT22;11312;51.464;6.968;2023-05-07T13:19:04;21.50;99.90
22288;DHT22;11312;51.464;6.968;2023-05-07T13:21:30;21.30;99.90
22288;DHT22;11312;51.464;6.968;2023-05-07T13:23:57;21.30;99.90
22288;DHT22;11312;51.464;6.968;2023-05-07T13:26:23;21.30;99.90
22288;DHT22;11312;51.464;6.968;2023-05-07T13:28:50;21.20;99.90
22288;DHT22;11312;51.464;6.968;2023-05-07T13:31:17;21.30;99.90
22288;DHT22;11312;51.464;6.968;2023-05-07T13:33:42;21.20;99.90
22288;DHT22;11312;51.464;6.968;2023-05-07T13:36:08;21.30;99.90
22288;DHT22;11312;51.464;6.968;2023-05-07T13:38:34;21.10;1.00
22288;DHT22;11312;51.464;6.968;2023-05-07T13:41:00;21.10;92.90
22288;DHT22;11312;51.464;6.968;2023-05-07T13:43:26;21.10;99.90
22288;DHT22;11312;51.464;6.968;2023-05-07T13:45:51;21.10;99.90
22288;DHT22;11312;51.464;6.968;2023-05-07T13:48:17;21.00;99.90
22288;DHT22;11312;51.464;6.968;2023-05-07T13:50:43;20.80;99.90
22288;DHT22;11312;51.464;6.968;2023-05-07T13:53:09;20.70;99.90
22288;DHT22;11312;51.464;6.968;2023-05-07T13:55:34;20.70;99.90
22288;DHT22;11312;51.464;6.968;2023-05-07T13:58:02;20.70;99.90
22288;DHT22;11312;51.464;6.968;2023-05-07T14:00:28;20.80;99.90
22288;DHT22;11312;51.464;6.968;2023-05-07T14:02:55;20.70;99.90
22288;DHT22;11312;51.464;6.968;2023-05-07T14:05:22;20.60;99.90
22288;DHT22;11312;51.464;6.968;2023-05-07T14:07:53;20.70;99.90
22288;DHT22;11312;51.464;6.968;2023-05-07T14:10:19;20.60;99.90
22288;DHT22;11312;51.464;6.968;2023-05-07T14:12:45;20.70;99.90
22288;DHT22;11312;51.464;6.968;2023-05-07T14:15:11;20.60;99.90
22288;DHT22;11312;51.464;6.968;2023-05-07T14:17:37;20.70;99.90
22288;DHT22;11312;51.464;6.968;2023-05-07T14:20:03;20.80;99.90
22288;DHT22;11312;51.464;6.968;2023-05-07T14:22:29;20.60;99.90
22288;DHT22;11312;51.464;6.968;2023-05-07T14:24:54;20.50;99.90
22288;DHT22;11312;51.464;6.968;2023-05-07T14:27:20;20.60;99.90
22288;DHT22;11312;51.464;6.968;2023-05-07T14:29:46;20.80;99.90
22288;DHT22;11312;51.464;6.968;2023-05-07T14:32:17;20.80;99.90
22288;DHT22;11312;51.464;6.968;2023-05-07T14:34:43;20.80;99.90
22288;DHT22;11312;51.464;6.968;2023-05-07T14:37:08;20.80;99.90
22288;DHT22;11312;51.464;6.968;2023-05-07T14:39:34;20.60;99.90
22288;DHT22;11312;51.464;6.968;2023-05-07T14:42:00;20.40;99.90
22288;DHT22;11312;51.464;6.968;2023-05-07T14:44:25;20.20;99.90
22288;DHT22;11312;51.464;6.968;2023-05-07T14:46:51;20.40;99.90
22288;DHT22;11312;51.464;6.968;2023-05-07T14:49:17;20.70;99.90
22288;DHT22;11312;51.464;6.968;2023-05-07T14:51:46;20.70;99.90
22288;DHT22;11312;51.464;6.968;2023-05-07T14:54:14;20.90;99.90
22288;DHT22;11312;51.464;6.968;2023-05-07T14:56:41;21.00;99.90
22288;DHT22;11312;51.464;6.968;2023-05-07T14:59:07;21.10;99.90
22288;DHT22;11312;51.464;6.968;2023-05-07T15:01:35;21.00;99.90
22288;DHT22;11312;51.464;6.968;2023-05-07T15:04:01;21.30;99.90
22288;DHT22;11312;51.464;6.968;2023-05-07T15:06:26;21.40;99.90
22288;DHT22;11312;51.464;6.968;2023-05-07T15:08:52;21.60;99.90
22288;DHT22;11312;51.464;6.968;2023-05-07T15:11:18;21.70;99.90
22288;DHT22;11312;51.464;6.968;2023-05-07T15:13:43;21.40;99.90
22288;DHT22;11312;51.464;6.968;2023-05-07T15:16:09;21.30;99.90
22288;DHT22;11312;51.464;6.968;2023-05-07T15:18:35;21.20;99.90
22288;DHT22;11312;51.464;6.968;2023-05-07T15:21:00;21.30;99.90
22288;DHT22;11312;51.464;6.968;2023-05-07T15:23:26;21.40;99.90
22288;DHT22;11312;51.464;6.968;2023-05-07T15:25:52;21.60;99.90
22288;DHT22;11312;51.464;6.968;2023-05-07T15:28:18;21.60;99.90
22288;DHT22;11312;51.464;6.968;2023-05-07T15:30:44;21.60;99.90
22288;DHT22;11312;51.464;6.968;2023-05-07T15:33:10;21.60;99.90
22288;DHT22;11312;51.464;6.968;2023-05-07T15:35:36;21.50;99.90
22288;DHT22;11312;51.464;6.968;2023-05-07T15:38:02;21.50;99.90
22288;DHT22;11312;51.464;6.968;2023-05-07T15:40:28;21.40;99.90
22288;DHT22;11312;51.464;6.968;2023-05-07T15:42:55;21.30;99.90